Arcadia, KS

1:59 PM CDT on July 28, 2016 (GMT -0500)
ArmaWest | | Change Station

Elev 1001 ft 37.55 °N, 94.71 °W | Updated 22 seconds ago

Clear
Clear
89.1 °F
Feels Like 97 °F
N
2.7
Wind Variable Wind from North

Today
High -- | Low -- °F
--% Chance of Precip.
Yesterday
High -- | Low -- °F
Precip. -- in
Pressure 29.95 in
Visibility 10.0 miles
Clouds Clear
Heat Index 97 °F
Dew Point 72 °F
Humidity 58%
Rainfall 0.00 in
Snow Depth Not available.
6:20 AM 8:30 PM
Waning Crescent, 29% visible
METAR KPTS 281855Z AUTO 00000KT 10SM CLR 29/21 A2995 RMK AO2 T02900212
Pressure 29.95 in
Visibility 10.0 miles
Clouds Clear
Heat Index 97 °F
Dew Point 72 °F
Humidity 58%
Rainfall 0.00 in
Snow Depth Not available.
6:20 AM 8:30 PM
Waning Crescent, 29% visible
METAR KPTS 281855Z AUTO 00000KT 10SM CLR 29/21 A2995 RMK AO2 T02900212

10-Day Weather Forecast

Almanac

Astronomy

Jul. 28, 2016 Rise Set
Actual Time
Civil Twilight
Nautical Twilight
Astronomical Twilight
Moon
Length of Visible Light
Length of Day
Tomorrow will be .
, % of the Moon is Illuminated

Today's Extremes

State Highs State Lows

Community

WunderPhotos

Upload Photos

1,928,174 photos uploaded!

WunderBlog® & News

Nearby

Air Quality

  Air Quality AQ Index Pollutant
Not available.

Snow Depth

Station Depth Elevation

Earthquake Activity

City Distance Mag. Time & Date
Minimum magnitude displayed is 2.5.

Coastal Water Temperatures

Place Temperature

Stations

Nearby Weather Stations

Station Location Temp. Windchill Dew Point Humidity Wind Precip. Elev Updated Type
                   

Watches & Warnings

There are currently no watches in effect.